Kimballton, Virginia
Current Conditions -  °F | °C
As of 2:15 PM on Friday 21 Nov 2014 (Local Time) from KPSK Reporting Station
Clear Clear  
Wind Chill: 34°   Ceiling: Unl
Heat Index: 39°   Visibility: 10mi
Dew Point:   Wind: 7mph
Humidity: 28%   Direction: 250°WSW
Pressure: 30.39"   Gusts: NA
Location:  37.3528°N, 80.6692°W
Report Text: KPSK 211915Z AUTO 25006KT 10SM CLR 04/M13 A3039 RMK AO2 T00411130
Loading
Personal Weather Stations






























Interactive Weather Map New forecast layout! Learn more

10-Day Weather Forecast

Advertisements
Track Severe Weather on mobile